createdAt,value
2023-02-13T00:03:25.137Z,2.53
2023-02-13T00:08:28.042Z,3.55
2023-02-13T00:13:30.948Z,2.53
2023-02-13T00:18:37.914Z,2.88
2023-02-13T00:23:41.442Z,3.60
2023-02-13T00:28:44.492Z,2.45
2023-02-13T00:33:48.950Z,2.28
2023-02-13T00:38:52.043Z,2.50
2023-02-13T00:43:54.869Z,2.50
2023-02-13T00:48:59.002Z,2.72
2023-02-13T00:54:02.070Z,2.10
2023-02-13T00:59:04.873Z,2.17
2023-02-13T01:04:09.078Z,2.90
2023-02-13T01:09:12.612Z,2.50
2023-02-13T01:14:15.421Z,2.15
2023-02-13T01:19:19.692Z,2.05
2023-02-13T01:24:22.551Z,2.63
2023-02-13T01:29:25.437Z,2.42
2023-02-13T01:34:29.614Z,2.58
2023-02-13T01:39:32.613Z,2.72
2023-02-13T01:44:50.207Z,2.83
2023-02-13T01:50:03.051Z,2.10
2023-02-13T01:55:07.365Z,2.88
2023-02-13T02:00:15.756Z,2.70
2023-02-13T02:05:20.967Z,2.53
2023-02-13T02:10:24.124Z,2.40
2023-02-13T02:15:27.598Z,2.50
2023-02-13T02:20:49.802Z,2.83
2023-02-13T02:26:20.933Z,2.67
2023-02-13T02:31:59.309Z,2.28
2023-02-13T02:37:12.450Z,2.45
2023-02-13T02:42:25.012Z,2.08
2023-02-13T02:47:53.709Z,2.15
2023-02-13T02:53:06.938Z,2.35
2023-02-13T02:58:34.132Z,2.72
2023-02-13T03:03:55.987Z,2.15
2023-02-13T03:09:20.127Z,2.05
2023-02-13T03:14:27.192Z,2.10
2023-02-13T03:20:02.415Z,2.00
2023-02-13T03:25:13.724Z,1.70
2023-02-13T03:30:27.752Z,2.00
2023-02-13T03:35:56.469Z,2.30
2023-02-13T03:41:20.428Z,2.60
2023-02-13T03:46:25.617Z,2.92
2023-02-13T03:51:33.432Z,2.28
2023-02-13T03:56:56.084Z,2.33
2023-02-13T04:02:07.237Z,2.13
2023-02-13T04:07:29.337Z,2.05
2023-02-13T04:12:44.336Z,2.47
2023-02-13T04:17:50.939Z,1.65
2023-02-13T04:22:55.159Z,2.25
2023-02-13T04:27:58.021Z,2.20
2023-02-13T04:33:01.023Z,2.03
2023-02-13T04:38:05.860Z,2.88
2023-02-13T04:43:10.226Z,2.78
2023-02-13T04:48:13.081Z,2.25
2023-02-13T04:53:17.321Z,2.33
2023-02-13T04:58:20.151Z,2.28
2023-02-13T05:03:22.975Z,2.33
2023-02-13T05:08:27.135Z,1.88
2023-02-13T05:13:29.972Z,2.78
2023-02-13T05:18:32.832Z,2.60
2023-02-13T05:23:37.165Z,1.92
2023-02-13T05:28:57.430Z,3.08
2023-02-13T05:34:00.293Z,2.78
2023-02-13T05:39:04.630Z,2.50
2023-02-13T05:44:07.582Z,2.63
2023-02-13T05:49:11.806Z,3.40
2023-02-13T05:54:16.176Z,3.13
2023-02-13T05:59:19.207Z,2.90
2023-02-13T06:04:22.444Z,3.50
2023-02-13T06:09:26.701Z,2.17
2023-02-13T06:14:29.510Z,3.20
2023-02-13T06:19:32.308Z,2.90
2023-02-13T06:24:36.550Z,3.25
2023-02-13T06:29:39.466Z,3.60
2023-02-13T06:34:42.373Z,2.80
2023-02-13T06:39:46.521Z,3.33
2023-02-13T06:44:49.344Z,3.47
2023-02-13T06:49:52.283Z,2.55
2023-02-13T06:54:56.977Z,3.67
2023-02-13T06:59:59.840Z,3.80
2023-02-13T07:05:03.907Z,2.90
2023-02-13T07:10:10.049Z,2.25
2023-02-13T07:15:13.025Z,3.25
2023-02-13T07:20:15.901Z,5.43
2023-02-13T07:25:21.052Z,3.20
2023-02-13T07:30:23.917Z,3.15
2023-02-13T07:35:26.854Z,2.78
2023-02-13T07:40:31.096Z,3.17
2023-02-13T07:45:33.931Z,2.35
2023-02-13T07:50:36.767Z,2.88
2023-02-13T07:55:41.003Z,2.72
2023-02-13T08:00:43.973Z,5.05
2023-02-13T08:05:49.590Z,3.25
2023-02-13T08:11:11.249Z,5.35
2023-02-13T08:16:14.259Z,3.88
2023-02-13T08:21:17.236Z,3.83
2023-02-13T08:26:21.388Z,4.47
2023-02-13T08:31:24.577Z,3.75
2023-02-13T08:36:27.536Z,6.35
2023-02-13T08:41:31.712Z,4.45
2023-02-13T08:46:34.625Z,6.07
2023-02-13T08:51:37.454Z,3.58
2023-02-13T08:56:41.713Z,3.92
2023-02-13T09:01:44.820Z,4.78
2023-02-13T09:06:47.772Z,4.75
2023-02-13T09:11:52.454Z,5.10
2023-02-13T09:16:55.446Z,5.00
2023-02-13T09:21:58.315Z,5.45
2023-02-13T09:27:02.470Z,5.40
2023-02-13T09:32:06.972Z,7.05
2023-02-13T09:37:09.809Z,6.60
2023-02-13T09:42:21.320Z,4.70
2023-02-13T09:47:30.021Z,6.30
2023-02-13T09:52:34.696Z,6.85
2023-02-13T09:57:45.274Z,4.88
2023-02-13T10:03:03.784Z,8.60
2023-02-13T10:08:13.547Z,7.35
2023-02-13T10:13:29.889Z,4.95
2023-02-13T10:18:42.137Z,6.50
2023-02-13T10:23:51.154Z,6.68
2023-02-13T10:29:25.630Z,6.80
2023-02-13T10:34:32.670Z,5.22
2023-02-13T10:39:35.563Z,6.05
2023-02-13T10:44:49.933Z,5.53
2023-02-13T10:50:06.198Z,5.55
2023-02-13T10:55:30.895Z,5.97
2023-02-13T11:00:38.260Z,4.60
2023-02-13T11:05:42.825Z,4.18
2023-02-13T11:10:45.692Z,4.05
2023-02-13T11:16:01.965Z,4.35
2023-02-13T11:21:10.057Z,4.28
2023-02-13T11:26:16.530Z,4.68
2023-02-13T11:31:27.537Z,4.40
2023-02-13T11:36:32.350Z,6.28
2023-02-13T11:41:41.998Z,5.38
2023-02-13T11:46:49.022Z,8.45
2023-02-13T11:51:54.111Z,9.82
2023-02-13T11:57:05.175Z,6.88
2023-02-13T12:02:21.597Z,9.70
2023-02-13T12:07:27.531Z,6.13
2023-02-13T12:12:36.511Z,5.68
2023-02-13T12:17:45.859Z,6.07
2023-02-13T12:23:00.586Z,6.47
2023-02-13T12:28:11.636Z,4.78
2023-02-13T12:33:36.457Z,3.95
2023-02-13T12:39:01.548Z,4.20
2023-02-13T12:44:31.759Z,4.90
2023-02-13T12:50:00.370Z,5.50
2023-02-13T12:55:19.563Z,5.80
2023-02-13T13:00:32.949Z,4.47
2023-02-13T13:06:08.855Z,5.13
2023-02-13T13:11:29.833Z,4.68
2023-02-13T13:16:45.155Z,5.65
2023-02-13T13:21:55.809Z,6.15
2023-02-13T13:27:01.369Z,5.60
2023-02-13T13:32:07.486Z,5.72
2023-02-13T13:37:20.578Z,4.68
2023-02-13T13:42:31.662Z,3.53
2023-02-13T13:47:49.392Z,4.68
2023-02-13T13:53:12.046Z,3.95
2023-02-13T13:58:23.662Z,5.20
2023-02-13T14:03:36.962Z,5.00
2023-02-13T14:08:59.335Z,3.22
2023-02-13T14:14:03.262Z,4.70
2023-02-13T14:19:07.117Z,4.15
2023-02-13T14:24:13.646Z,3.53
2023-02-13T14:29:48.098Z,3.90
2023-02-13T14:34:57.619Z,5.43
2023-02-13T14:40:42.173Z,4.20
2023-02-13T14:45:50.799Z,4.00
2023-02-13T14:50:58.099Z,3.72
2023-02-13T14:56:07.592Z,4.78
2023-02-13T15:01:30.235Z,5.43
2023-02-13T15:06:37.697Z,5.65
2023-02-13T15:11:43.776Z,3.95
2023-02-13T15:16:51.151Z,7.65
2023-02-13T15:21:57.739Z,5.07
2023-02-13T15:27:04.560Z,4.97
2023-02-13T15:32:20.315Z,4.38
2023-02-13T15:37:24.340Z,4.32
2023-02-13T15:42:28.627Z,5.25
2023-02-13T15:47:33.951Z,4.72
2023-02-13T15:52:40.018Z,3.88
2023-02-13T15:57:44.507Z,4.22
2023-02-13T16:02:49.388Z,4.88
2023-02-13T16:07:54.636Z,3.15
2023-02-13T16:13:00.527Z,16.80
2023-02-13T16:18:06.208Z,24.90
2023-02-13T16:23:17.015Z,42.55
2023-02-13T16:28:24.625Z,31.42
2023-02-13T16:33:30.520Z,24.35
2023-02-13T16:38:36.455Z,17.17
2023-02-13T16:43:46.927Z,15.48
2023-02-13T16:49:05.556Z,12.63
2023-02-13T16:54:19.048Z,16.27
2023-02-13T16:59:29.569Z,15.05
2023-02-13T17:04:32.573Z,13.73
2023-02-13T17:09:35.394Z,10.40
2023-02-13T17:14:39.578Z,10.15
2023-02-13T17:19:42.451Z,8.05
2023-02-13T17:24:45.698Z,11.88
2023-02-13T17:29:49.922Z,8.18
2023-02-13T17:34:52.979Z,9.15
2023-02-13T17:39:56.036Z,8.27
2023-02-13T17:45:00.261Z,8.82
2023-02-13T17:50:09.606Z,6.75
2023-02-13T17:55:17.909Z,6.90
2023-02-13T18:00:22.752Z,8.75
2023-02-13T18:05:25.671Z,12.00
2023-02-13T18:10:30.183Z,10.63
2023-02-13T18:15:35.078Z,6.50
2023-02-13T18:20:38.211Z,6.97
2023-02-13T18:25:41.081Z,6.25
2023-02-13T18:30:45.517Z,7.40
2023-02-13T18:35:48.443Z,7.78
2023-02-13T18:40:51.359Z,8.73
2023-02-13T18:45:55.566Z,6.10
2023-02-13T18:51:00.492Z,7.15
2023-02-13T18:56:05.509Z,6.68
2023-02-13T19:01:12.036Z,5.53
2023-02-13T19:06:17.776Z,8.93
2023-02-13T19:11:23.321Z,10.07
2023-02-13T19:16:29.182Z,7.93
2023-02-13T19:21:34.128Z,9.05
2023-02-13T19:26:37.562Z,16.33
2023-02-13T19:31:42.208Z,6.70
2023-02-13T19:36:45.102Z,6.78
2023-02-13T19:41:47.915Z,10.52
2023-02-13T19:46:52.410Z,7.28
2023-02-13T19:51:55.294Z,9.13
2023-02-13T19:57:00.359Z,13.23
2023-02-13T20:02:04.796Z,7.20
2023-02-13T20:07:07.786Z,7.30
2023-02-13T20:12:10.614Z,6.95
2023-02-13T20:17:14.768Z,7.97
2023-02-13T20:22:18.034Z,5.85
2023-02-13T20:27:20.955Z,10.20
2023-02-13T20:32:25.268Z,8.38
2023-02-13T20:37:28.172Z,6.95
2023-02-13T20:42:34.491Z,7.07
2023-02-13T20:47:40.334Z,7.57
2023-02-13T20:52:43.222Z,5.25
2023-02-13T20:57:46.115Z,8.00
2023-02-13T21:02:50.388Z,6.53
2023-02-13T21:07:53.261Z,7.43
2023-02-13T21:12:56.134Z,5.82
2023-02-13T21:18:01.664Z,6.20
2023-02-13T21:23:05.418Z,5.25
2023-02-13T21:28:08.332Z,5.40
2023-02-13T21:33:12.549Z,8.40
2023-02-13T21:38:15.424Z,7.47
2023-02-13T21:43:18.443Z,7.07
2023-02-13T21:48:22.737Z,5.47
2023-02-13T21:53:25.719Z,7.68
2023-02-13T21:58:28.581Z,5.80
2023-02-13T22:03:32.782Z,6.10
2023-02-13T22:08:35.810Z,9.25
2023-02-13T22:13:39.439Z,7.40
2023-02-13T22:18:45.717Z,8.43
2023-02-13T22:23:49.568Z,5.63
2023-02-13T22:28:53.222Z,5.70
2023-02-13T22:34:03.817Z,4.78
2023-02-13T22:39:08.843Z,6.63
2023-02-13T22:44:11.713Z,5.07
2023-02-13T22:49:15.953Z,6.15
2023-02-13T22:54:18.860Z,5.43
2023-02-13T22:59:21.790Z,5.28
2023-02-13T23:04:26.012Z,4.93
2023-02-13T23:09:28.910Z,4.50
2023-02-13T23:14:31.820Z,6.38
2023-02-13T23:19:36.022Z,4.40
2023-02-13T23:24:38.971Z,5.13
2023-02-13T23:29:41.822Z,4.60
2023-02-13T23:34:46.160Z,6.43
2023-02-13T23:39:49.569Z,5.47
2023-02-13T23:44:52.379Z,4.35
2023-02-13T23:49:56.562Z,4.55
2023-02-13T23:54:59.511Z,4.80
